Nearby METAR Reports

 

KBJC - Broomfield/Jeffc, Colorado, USA
Distance from station: NNW 11mi, 17km
Updated: 01/23/2019 2:45pm
Partly cloudy
Partly cloudy
 Wind from W
Wind: W 28 mph , 44 km/h, Gust: 39 mph , 63 km/h
Temperature: 45°F , 7°C
Wind Chill: 36°F , 2°C
Dew Point: 12°F , -11°C
Humidity: 27%
Barometer: 29.84 inHg , 1010.5 hPa
Clouds: Partly cloudy
Visibility: 30 miles , 48 km
Cloud details: Partly cloudy 10000 ft
Partly cloudy 16000 ft
2019/01/23 21:45 KBJC 232145Z 27024G34KT 30SM SCT100 SCT160 07/M11 A2984
KBKF - Buckley Angb/Den, Colorado, USA
Distance from station: E 16mi, 25km
Updated: 01/23/2019 2:58pm
Partly cloudy
Partly cloudy
 Wind from N
Wind: N 10 mph , 17 km/h
Temperature: 39°F , 4°C
Wind Chill: 32°F , 0°C
Dew Point: 19°F , -7°C
Humidity: 45%
Barometer: 29.85 inHg , 1010.8 hPa
Clouds: Partly cloudy
Visibility: 10 miles , 16 km
Cloud details: Partly cloudy 8000 ft
Partly cloudy 20000 ft
2019/01/23 21:58 KBKF 232158Z 36009KT 10SM SCT080 SCT200 04/M07 A2985 RMK AO2A PK WND 33026/22 SLP126 T00381068
 
KAPA - Denver/Arapahoe, Colorado, USA
Distance from station: SE 16mi, 26km
Updated: 01/23/2019 2:53pm
Mostly cloudy
Mostly cloudy
 Wind from NNW
Wind: NNW 5 mph , 7 km/h
Temperature: 43°F , 6°C
Wind Chill: 40°F , 4°C
Dew Point: 18°F , -8°C
Humidity: 36%
Barometer: 29.84 inHg , 1010.5 hPa
Clouds: Mostly cloudy
Visibility: 10 miles , 16 km
Cloud details: Few Clouds 8000 ft
Mostly cloudy 10000 ft
Mostly cloudy 22000 ft
2019/01/23 21:53 KAPA 232153Z 34004KT 10SM FEW080 BKN100 BKN220 06/M08 A2984 RMK AO2 WSHFT 2126 SLP128 T00561078
KEIK - Erie Muni, Colorado, USA
Distance from station: N 18mi, 29km
Updated: 01/23/2019 3:36pm
Clear
Clear
 Wind from WNW
Wind: WNW 20 mph , 31 km/h, Gust: 24 mph , 39 km/h
Temperature: 45°F , 7°C
Wind Chill: 37°F , 3°C
Dew Point: 10°F , -12°C
Humidity: 25%
Barometer: 29.89 inHg , 1012.2 hPa
Clouds: Clear
Visibility: 10 miles , 16 km
2019/01/23 22:36 KEIK 232236Z AUTO 30017G21KT 10SM CLR 07/M12 A2989 RMK AO2 T00681120
 
KBDU - Boulder Muni, Colorado, USA
Distance from station: NNW 22mi, 35km
Updated: 01/23/2019 3:30pm
Clear
Clear
 Wind from W
Wind: W 21 mph , 33 km/h, Gust: 33 mph , 54 km/h
Temperature: 43°F , 6°C
Wind Chill: 34°F , 1°C
Dew Point: 10°F , -12°C
Humidity: 26%
Barometer: 29.84 inHg , 1010.5 hPa
Clouds: Clear
Visibility: 10 miles , 16 km
2019/01/23 22:30 KBDU 232230Z AUTO 27018G29KT 10SM CLR 06/M12 A2984 RMK AO2
KDEN - Denver (dia), Colorado, USA
Distance from station: ENE 22mi, 35km
Updated: 01/23/2019 2:53pm
Mostly cloudy
Mostly cloudy
 Wind from E
Wind: E 9 mph , 15 km/h
Temperature: 41°F , 5°C
Wind Chill: 35°F , 2°C
Dew Point: 21°F , -6°C
Humidity: 45%
Barometer: 29.84 inHg , 1010.5 hPa
Clouds: Mostly cloudy
Visibility: 10 miles , 16 km
Cloud details: Few Clouds 8000 ft
Partly cloudy 11000 ft
Mostly cloudy 22000 ft
2019/01/23 21:53 KDEN 232153Z 08008KT 10SM FEW080 SCT110 BKN220 05/M06 A2984 RMK AO2 SLP116 T00501056
 
KFTG - Denver F. Range, Colorado, USA
Distance from station: E 26mi, 42km
Updated: 01/23/2019 1:47pm
NOT Current
Mostly cloudy
Mostly cloudy
 Wind from E
Wind: E 8 mph , 13 km/h
Temperature: 41°F , 5°C
Wind Chill: 36°F , 2°C
Dew Point: 21°F , -6°C
Humidity: 45%
Barometer: 29.85 inHg , 1010.8 hPa
Clouds: Mostly cloudy
Visibility: 10 miles , 16 km
Cloud details: Mostly cloudy 11000 ft
Mostly cloudy 18000 ft
2019/01/23 20:47 KFTG 232047Z 08007KT 10SM BKN110 BKN180 05/M06 A2985
KLMO - Longmont/Vbrand, Colorado, USA
Distance from station: NNW 29mi, 47km
Updated: 01/23/2019 3:35pm
Clear
Clear
 Wind from ENE
Wind: ENE 6 mph , 9 km/h
Temperature: 46°F , 8°C
Wind Chill: 43°F , 6°C
Dew Point: 14°F , -10°C
Humidity: 27%
Barometer: 29.86 inHg , 1011.2 hPa
Clouds: Clear
Visibility: 10 miles , 16 km
2019/01/23 22:35 KLMO 232235Z AUTO 07005KT 10SM CLR 08/M10 A2986 RMK AO2 T00801101
 
K0CO - Berthoud Pass, Colorado, USA
Distance from station: W 39mi, 62km
Updated: 01/23/2019 3:42pm
Overcast
Overcast
 Wind from NW
Wind: NW 37 mph , 59 km/h, Gust: 54 mph , 87 km/h
Temperature: 5°F , -15°C
Wind Chill: -21°F , -29°C
Dew Point: -6°F , -21°C
Humidity: 60%
Barometer: 29.82 inHg , 1009.8 hPa
Clouds: Overcast
Cloud details: Mostly cloudy 500 ft
Overcast 1200 ft
2019/01/23 22:42 K0CO 232242Z AUTO 31032G47KT BKN005 OVC012 M15/M21 A2982 RMK AO2 PWINO
KMNH - Monument/Elbert, Colorado, USA
Distance from station: SSE 43mi, 68km
Updated: 01/23/2019 3:24pm
Partly cloudy
Partly cloudy
 Wind from SE
Wind: SE 7 mph , 11 km/h
Temperature: 30°F , -1°C
Wind Chill: 23°F , -5°C
Dew Point: 16°F , -9°C
Humidity: 55%
Barometer: 29.87 inHg , 1011.5 hPa
Clouds: Partly cloudy
Visibility: 10 miles , 16 km
Cloud details: Partly cloudy 8000 ft
2019/01/23 22:24 KMNH 232224Z AUTO 13006KT 10SM SCT080 M01/M09 A2987 RMK AO2
 
KFNL - Ft Collins/Lovel, Colorado, USA
Distance from station: N 48mi, 78km
Updated: 01/23/2019 2:56pm
Clear
Clear
 Wind from SE
Wind: SE 8 mph , 13 km/h
Temperature: 43°F , 6°C
Wind Chill: 38°F , 3°C
Dew Point: 9°F , -13°C
Humidity: 24%
Barometer: 29.85 inHg , 1010.8 hPa
Clouds: Clear
Visibility: 10 miles , 16 km
2019/01/23 21:56 KFNL 232156Z AUTO 13007KT 10SM CLR 06/M13 A2985 RMK AO2 SLP134 T00561128 PNO $